Terminal Aerodrome Forecast
Issued by NWS

Home | Current Version | Previous Version | Text Only | Print | Product List | Glossary On
Versions: 1 2 3 4 5 6 7 8 9 10 11 12 13 14 15 16 17 18 19 20 21 22 23
000
FTUS42 KTBW 062029 AAA
TAFPGD
TAF AMD
KPGD 062029Z 0620/0718 28007KT P6SM VCTS SCT040CB BKN250
      TEMPO 0620/0622 VRB15G25KT 1SM +TSRA BKN020CB
     FM070000 VRB03KT P6SM SCT250
     FM071400 12006KT P6SM SCT050 BKN150=

USA.gov is the U.S. government's official web portal to all federal, state and local government web resources and services.